Main page
METAR-TAF:

METAR-TAF

Airports :

Tangier Ibn Battouta Airport

Tangier, Morocco

latitude: 35-44N, longitude: 005-54W, elevation: 19 m

Current weather observation

The report was made 28 minutes ago, at 20:00 UTC
Wind 15 kt from the East
Temperature 13°C
Humidity 77%
Pressure 1021 hPa
Visibility 10 km or more
no clouds below 1500 m and no cumulonimbus

METAR: GMTT 212000Z 08015KT CAVOK 13/09 Q1021 NOSIG

Time: 21:28 (20:28 UTC)

Forecast

The report was made 3 hours and 28 minutes ago, at 17:00 UTC
Forecast valid from 21 at 18 UTC to 22 at 24 UTC
Wind 14 kt from the East
Visibility 10 km or more
no clouds below 1500 m and no cumulonimbus
Temporary
from 22 at 08 UTC to 22 at 18 UTC
Wind 20 kt from the East with gusts up to 33 kt

TAF: GMTT 211700Z 2118/2224 08014KT CAVOK TEMPO 2208/2218 09020G33KT

Weather observations and forecasts of more than 4000 airports (METAR and TAF reports).

The available stations are represented by yellow and red dots on the map.

Hover mouse over dot to see the name of the station.

Then click to see weather observations and forecasts.

To change the map : click on the green buttons with a black cross to zoom in, on the green button with a dash to zoom out, or on the green arrows for adjacent maps.


METAR-TAF: